Rockford, IL

10:30 PM CDT on August 25, 2016 (GMT -0500)
Downtown | | Change Station

Elev 728 ft 42.27 °N, 89.09 °W | Updated 9 minutes ago

Mostly Cloudy
Mostly Cloudy
73.9 °F
Feels Like 75 °F
N
0.6
Wind Variable Wind from West
Gusts 1.2 mph

Today
High -- | Low -- °F
--% Chance of Precip.
Yesterday
High -- | Low -- °F
Precip. -- in
Pressure 30.08 in
Visibility 10.0 miles
Clouds Mostly Cloudy 12000 ft
Mostly Cloudy 15000 ft
Heat Index 75 °F
Dew Point 66 °F
Humidity 75%
Rainfall 0.08 in
Snow Depth Not available.
6:14 AM 7:41 PM
Last Quarter, 39% visible
METAR KRFD 260254Z 00000KT 10SM BKN120 BKN150 22/18 A3009 RMK AO2 SLP185 T02170183 51009
Pressure 30.08 in
Visibility 10.0 miles
Clouds Mostly Cloudy 12000 ft
Mostly Cloudy 15000 ft
Heat Index 75 °F
Dew Point 66 °F
Humidity 75%
Rainfall 0.08 in
Snow Depth Not available.
6:14 AM 7:41 PM
Last Quarter, 39% visible
METAR KRFD 260254Z 00000KT 10SM BKN120 BKN150 22/18 A3009 RMK AO2 SLP185 T02170183 51009
A tropical disturbance pushing toward the Bahamas, is expected to develop into a tropical depression or storm, and will likely target Florida and the Gulf Coast this weekend into next week.

Right now, the disturbance remains a broad area of low pressure pushing through the Dominican Republic and Haiti, headed toward the southeast Bahamas. Rainfall totals over 3 inches (with locally higher amounts) are expected in HispaƱiola, particularly over elevated terrain.

10-Day Weather Forecast

Almanac

Astronomy

Aug. 25, 2016 Rise Set
Actual Time
Civil Twilight
Nautical Twilight
Astronomical Twilight
Moon
Length of Visible Light
Length of Day
Tomorrow will be .
, % of the Moon is Illuminated

Today's Extremes

State Highs State Lows

Community

WunderPhotos

Upload Photos

1,935,042 photos uploaded!

WunderBlog® & News

Nearby

Air Quality

  Air Quality AQ Index Pollutant
Not available.

Snow Depth

Station Depth Elevation

Earthquake Activity

City Distance Mag. Time & Date
Minimum magnitude displayed is 2.5.

Coastal Water Temperatures

Place Temperature

Stations

Nearby Weather Stations

Station Location Temp. Windchill Dew Point Humidity Wind Precip. Elev Updated Type
                   

Watches & Warnings

There are currently no watches in effect.